sensor_id;sensor_type;location;lat;lon;timestamp;temperature;humidity
20171;DHT22;10245;51.344;6.620;2023-06-24T00:01:45;17.50;88.40
20171;DHT22;10245;51.344;6.620;2023-06-24T00:04:08;17.40;88.40
20171;DHT22;10245;51.344;6.620;2023-06-24T00:06:31;17.50;88.40
20171;DHT22;10245;51.344;6.620;2023-06-24T00:08:56;17.40;88.30
20171;DHT22;10245;51.344;6.620;2023-06-24T00:11:24;17.40;88.50
20171;DHT22;10245;51.344;6.620;2023-06-24T00:13:47;17.40;88.60
20171;DHT22;10245;51.344;6.620;2023-06-24T00:16:11;17.30;88.70
20171;DHT22;10245;51.344;6.620;2023-06-24T00:18:35;17.30;88.80
20171;DHT22;10245;51.344;6.620;2023-06-24T00:20:58;17.30;88.70
20171;DHT22;10245;51.344;6.620;2023-06-24T00:23:23;17.30;88.80
20171;DHT22;10245;51.344;6.620;2023-06-24T00:25:47;17.20;88.90
20171;DHT22;10245;51.344;6.620;2023-06-24T00:28:12;17.20;88.90
20171;DHT22;10245;51.344;6.620;2023-06-24T00:30:35;17.20;89.00
20171;DHT22;10245;51.344;6.620;2023-06-24T00:32:58;17.10;88.90
20171;DHT22;10245;51.344;6.620;2023-06-24T00:35:21;17.20;88.80
20171;DHT22;10245;51.344;6.620;2023-06-24T00:37:45;17.10;88.90
20171;DHT22;10245;51.344;6.620;2023-06-24T00:40:09;17.10;89.00
20171;DHT22;10245;51.344;6.620;2023-06-24T00:42:38;17.10;89.00
20171;DHT22;10245;51.344;6.620;2023-06-24T00:45:03;17.10;89.10
20171;DHT22;10245;51.344;6.620;2023-06-24T00:47:28;17.10;89.00
20171;DHT22;10245;51.344;6.620;2023-06-24T00:49:56;17.10;89.10
20171;DHT22;10245;51.344;6.620;2023-06-24T00:52:20;17.10;89.10
20171;DHT22;10245;51.344;6.620;2023-06-24T00:54:44;17.10;89.30
20171;DHT22;10245;51.344;6.620;2023-06-24T00:57:07;17.00;89.30
20171;DHT22;10245;51.344;6.620;2023-06-24T00:59:30;17.00;89.50
20171;DHT22;10245;51.344;6.620;2023-06-24T01:01:56;17.00;89.50
20171;DHT22;10245;51.344;6.620;2023-06-24T01:04:28;17.00;89.60
20171;DHT22;10245;51.344;6.620;2023-06-24T01:06:52;17.00;89.60
20171;DHT22;10245;51.344;6.620;2023-06-24T01:09:16;17.00;89.60
20171;DHT22;10245;51.344;6.620;2023-06-24T01:11:39;17.10;89.70
20171;DHT22;10245;51.344;6.620;2023-06-24T01:14:02;17.10;89.60
20171;DHT22;10245;51.344;6.620;2023-06-24T01:16:32;17.10;89.50
20171;DHT22;10245;51.344;6.620;2023-06-24T01:19:05;17.10;89.50
20171;DHT22;10245;51.344;6.620;2023-06-24T01:21:48;17.00;89.60
20171;DHT22;10245;51.344;6.620;2023-06-24T01:24:40;17.10;89.80
20171;DHT22;10245;51.344;6.620;2023-06-24T01:27:32;17.00;89.80
20171;DHT22;10245;51.344;6.620;2023-06-24T01:30:34;17.00;89.90
20171;DHT22;10245;51.344;6.620;2023-06-24T01:33:19;17.00;89.80
20171;DHT22;10245;51.344;6.620;2023-06-24T01:35:47;17.00;89.60
20171;DHT22;10245;51.344;6.620;2023-06-24T01:38:18;17.00;89.60
20171;DHT22;10245;51.344;6.620;2023-06-24T01:40:46;17.00;89.40
20171;DHT22;10245;51.344;6.620;2023-06-24T01:43:12;17.00;89.80
20171;DHT22;10245;51.344;6.620;2023-06-24T01:45:38;17.00;89.90
20171;DHT22;10245;51.344;6.620;2023-06-24T01:48:07;17.00;89.80
20171;DHT22;10245;51.344;6.620;2023-06-24T01:50:36;17.00;89.90
20171;DHT22;10245;51.344;6.620;2023-06-24T01:53:01;17.00;89.70
20171;DHT22;10245;51.344;6.620;2023-06-24T01:55:28;17.00;89.50
20171;DHT22;10245;51.344;6.620;2023-06-24T01:57:53;17.00;89.40
20171;DHT22;10245;51.344;6.620;2023-06-24T02:00:18;17.00;89.50
20171;DHT22;10245;51.344;6.620;2023-06-24T02:02:45;17.00;89.20
20171;DHT22;10245;51.344;6.620;2023-06-24T02:05:09;17.00;89.00
20171;DHT22;10245;51.344;6.620;2023-06-24T02:07:34;17.00;89.20
20171;DHT22;10245;51.344;6.620;2023-06-24T02:10:00;17.00;89.20
20171;DHT22;10245;51.344;6.620;2023-06-24T02:12:24;16.90;89.30
20171;DHT22;10245;51.344;6.620;2023-06-24T02:14:50;16.90;89.40
20171;DHT22;10245;51.344;6.620;2023-06-24T02:17:14;16.90;89.50
20171;DHT22;10245;51.344;6.620;2023-06-24T02:19:38;16.90;89.50
20171;DHT22;10245;51.344;6.620;2023-06-24T02:22:02;16.80;89.50
20171;DHT22;10245;51.344;6.620;2023-06-24T02:24:28;16.80;89.70
20171;DHT22;10245;51.344;6.620;2023-06-24T02:26:53;16.80;89.80
20171;DHT22;10245;51.344;6.620;2023-06-24T02:29:18;16.80;89.90
20171;DHT22;10245;51.344;6.620;2023-06-24T02:31:41;16.80;89.90
20171;DHT22;10245;51.344;6.620;2023-06-24T02:34:05;16.70;89.80
20171;DHT22;10245;51.344;6.620;2023-06-24T02:36:30;16.70;89.70
20171;DHT22;10245;51.344;6.620;2023-06-24T02:38:53;16.70;89.60
20171;DHT22;10245;51.344;6.620;2023-06-24T02:41:17;16.80;89.90
20171;DHT22;10245;51.344;6.620;2023-06-24T02:43:42;16.70;90.10
20171;DHT22;10245;51.344;6.620;2023-06-24T02:46:05;16.70;90.10
20171;DHT22;10245;51.344;6.620;2023-06-24T02:48:31;16.60;90.20
20171;DHT22;10245;51.344;6.620;2023-06-24T02:50:56;16.60;90.30
20171;DHT22;10245;51.344;6.620;2023-06-24T02:53:21;16.60;90.20
20171;DHT22;10245;51.344;6.620;2023-06-24T02:55:44;16.60;90.20
20171;DHT22;10245;51.344;6.620;2023-06-24T02:58:10;16.60;90.20
20171;DHT22;10245;51.344;6.620;2023-06-24T03:01:03;16.50;90.30
20171;DHT22;10245;51.344;6.620;2023-06-24T03:03:40;16.50;90.40
20171;DHT22;10245;51.344;6.620;2023-06-24T03:06:07;16.50;90.50
20171;DHT22;10245;51.344;6.620;2023-06-24T03:08:35;16.50;90.50
20171;DHT22;10245;51.344;6.620;2023-06-24T03:10:58;16.50;90.60
20171;DHT22;10245;51.344;6.620;2023-06-24T03:13:26;16.50;90.70
20171;DHT22;10245;51.344;6.620;2023-06-24T03:16:12;16.50;90.60
20171;DHT22;10245;51.344;6.620;2023-06-24T03:18:43;16.50;90.40
20171;DHT22;10245;51.344;6.620;2023-06-24T03:21:06;16.40;90.50
20171;DHT22;10245;51.344;6.620;2023-06-24T03:23:30;16.50;90.60
20171;DHT22;10245;51.344;6.620;2023-06-24T03:25:54;16.40;90.60
20171;DHT22;10245;51.344;6.620;2023-06-24T03:28:17;16.50;90.60
20171;DHT22;10245;51.344;6.620;2023-06-24T03:30:48;16.40;90.60
20171;DHT22;10245;51.344;6.620;2023-06-24T03:33:14;16.40;90.60
20171;DHT22;10245;51.344;6.620;2023-06-24T03:35:40;16.40;90.50
20171;DHT22;10245;51.344;6.620;2023-06-24T03:38:07;16.40;90.40
20171;DHT22;10245;51.344;6.620;2023-06-24T03:40:30;16.40;90.40
20171;DHT22;10245;51.344;6.620;2023-06-24T03:42:54;16.50;90.50
20171;DHT22;10245;51.344;6.620;2023-06-24T03:45:17;16.50;90.50
20171;DHT22;10245;51.344;6.620;2023-06-24T03:47:41;16.50;90.50
20171;DHT22;10245;51.344;6.620;2023-06-24T03:50:06;16.50;90.60
20171;DHT22;10245;51.344;6.620;2023-06-24T03:52:29;16.50;90.50
20171;DHT22;10245;51.344;6.620;2023-06-24T03:54:53;16.50;90.50
20171;DHT22;10245;51.344;6.620;2023-06-24T03:57:16;16.40;90.80
20171;DHT22;10245;51.344;6.620;2023-06-24T03:59:39;16.50;90.90
20171;DHT22;10245;51.344;6.620;2023-06-24T04:02:03;16.50;90.90
20171;DHT22;10245;51.344;6.620;2023-06-24T04:04:32;16.50;90.70
20171;DHT22;10245;51.344;6.620;2023-06-24T04:06:55;16.50;90.50
20171;DHT22;10245;51.344;6.620;2023-06-24T04:09:18;16.60;90.50
20171;DHT22;10245;51.344;6.620;2023-06-24T04:11:41;16.60;90.60
20171;DHT22;10245;51.344;6.620;2023-06-24T04:14:04;16.60;90.50
20171;DHT22;10245;51.344;6.620;2023-06-24T04:16:28;16.70;90.50
20171;DHT22;10245;51.344;6.620;2023-06-24T04:18:52;16.60;90.30
20171;DHT22;10245;51.344;6.620;2023-06-24T04:21:16;16.70;90.40
20171;DHT22;10245;51.344;6.620;2023-06-24T04:23:40;16.80;90.00
20171;DHT22;10245;51.344;6.620;2023-06-24T04:26:03;16.80;90.10
20171;DHT22;10245;51.344;6.620;2023-06-24T04:28:27;16.90;90.20
20171;DHT22;10245;51.344;6.620;2023-06-24T04:30:50;16.80;90.20
20171;DHT22;10245;51.344;6.620;2023-06-24T04:33:14;16.90;90.20
20171;DHT22;10245;51.344;6.620;2023-06-24T04:35:37;16.90;90.00
20171;DHT22;10245;51.344;6.620;2023-06-24T04:38:02;17.00;90.10
20171;DHT22;10245;51.344;6.620;2023-06-24T04:40:25;17.00;89.80
20171;DHT22;10245;51.344;6.620;2023-06-24T04:42:48;17.00;89.70
20171;DHT22;10245;51.344;6.620;2023-06-24T04:45:11;17.10;89.70
20171;DHT22;10245;51.344;6.620;2023-06-24T04:47:34;17.20;89.60
20171;DHT22;10245;51.344;6.620;2023-06-24T04:49:58;17.20;89.40
20171;DHT22;10245;51.344;6.620;2023-06-24T04:52:23;17.20;89.40
20171;DHT22;10245;51.344;6.620;2023-06-24T04:54:48;17.30;89.40
20171;DHT22;10245;51.344;6.620;2023-06-24T04:57:23;17.40;89.30
20171;DHT22;10245;51.344;6.620;2023-06-24T04:59:48;17.50;89.30
20171;DHT22;10245;51.344;6.620;2023-06-24T05:02:12;17.50;89.10
20171;DHT22;10245;51.344;6.620;2023-06-24T05:04:35;17.60;88.90
20171;DHT22;10245;51.344;6.620;2023-06-24T05:06:58;17.70;88.60
20171;DHT22;10245;51.344;6.620;2023-06-24T05:09:22;17.70;88.70
20171;DHT22;10245;51.344;6.620;2023-06-24T05:11:46;17.80;88.60
20171;DHT22;10245;51.344;6.620;2023-06-24T05:14:10;17.80;88.40
20171;DHT22;10245;51.344;6.620;2023-06-24T05:16:33;17.90;88.40
20171;DHT22;10245;51.344;6.620;2023-06-24T05:18:56;17.90;88.10
20171;DHT22;10245;51.344;6.620;2023-06-24T05:21:19;18.00;88.00
20171;DHT22;10245;51.344;6.620;2023-06-24T05:23:42;18.10;87.80
20171;DHT22;10245;51.344;6.620;2023-06-24T05:26:06;18.10;87.70
20171;DHT22;10245;51.344;6.620;2023-06-24T05:28:30;18.20;87.80
20171;DHT22;10245;51.344;6.620;2023-06-24T05:30:54;18.30;87.50
20171;DHT22;10245;51.344;6.620;2023-06-24T05:33:17;18.30;87.70
20171;DHT22;10245;51.344;6.620;2023-06-24T05:35:42;18.40;87.40
20171;DHT22;10245;51.344;6.620;2023-06-24T05:38:06;18.50;86.60
20171;DHT22;10245;51.344;6.620;2023-06-24T05:40:29;18.60;87.00
20171;DHT22;10245;51.344;6.620;2023-06-24T05:42:53;18.70;86.80
20171;DHT22;10245;51.344;6.620;2023-06-24T05:45:18;18.80;86.40
20171;DHT22;10245;51.344;6.620;2023-06-24T05:47:41;19.00;86.90
20171;DHT22;10245;51.344;6.620;2023-06-24T05:50:05;19.00;85.70
20171;DHT22;10245;51.344;6.620;2023-06-24T05:52:29;19.10;85.00
20171;DHT22;10245;51.344;6.620;2023-06-24T05:54:52;19.20;85.20
20171;DHT22;10245;51.344;6.620;2023-06-24T05:57:15;19.50;85.20
20171;DHT22;10245;51.344;6.620;2023-06-24T05:59:38;19.60;84.10
20171;DHT22;10245;51.344;6.620;2023-06-24T06:02:03;19.60;84.50
20171;DHT22;10245;51.344;6.620;2023-06-24T06:04:26;19.50;84.10
20171;DHT22;10245;51.344;6.620;2023-06-24T06:06:49;19.60;84.50
20171;DHT22;10245;51.344;6.620;2023-06-24T06:09:13;19.50;83.90
20171;DHT22;10245;51.344;6.620;2023-06-24T06:11:36;19.80;83.60
20171;DHT22;10245;51.344;6.620;2023-06-24T06:13:59;20.20;82.80
20171;DHT22;10245;51.344;6.620;2023-06-24T06:16:22;20.40;81.90
20171;DHT22;10245;51.344;6.620;2023-06-24T06:18:48;20.20;81.90
20171;DHT22;10245;51.344;6.620;2023-06-24T06:21:12;20.30;82.50
20171;DHT22;10245;51.344;6.620;2023-06-24T06:23:35;20.30;81.20
20171;DHT22;10245;51.344;6.620;2023-06-24T06:25:58;20.10;81.10
20171;DHT22;10245;51.344;6.620;2023-06-24T06:28:21;20.30;81.90
20171;DHT22;10245;51.344;6.620;2023-06-24T06:30:45;20.70;81.20
20171;DHT22;10245;51.344;6.620;2023-06-24T06:33:08;20.60;79.80
20171;DHT22;10245;51.344;6.620;2023-06-24T06:35:33;20.80;79.30
20171;DHT22;10245;51.344;6.620;2023-06-24T06:37:57;20.60;76.00
20171;DHT22;10245;51.344;6.620;2023-06-24T06:40:21;20.70;75.90
20171;DHT22;10245;51.344;6.620;2023-06-24T06:42:44;20.80;74.70
20171;DHT22;10245;51.344;6.620;2023-06-24T06:45:08;20.70;73.00
20171;DHT22;10245;51.344;6.620;2023-06-24T06:47:31;20.80;74.40
20171;DHT22;10245;51.344;6.620;2023-06-24T06:49:55;21.70;73.60
20171;DHT22;10245;51.344;6.620;2023-06-24T06:52:19;21.50;74.10
20171;DHT22;10245;51.344;6.620;2023-06-24T06:54:42;21.40;68.70
20171;DHT22;10245;51.344;6.620;2023-06-24T06:57:06;21.30;65.60
20171;DHT22;10245;51.344;6.620;2023-06-24T06:59:29;21.30;66.30
20171;DHT22;10245;51.344;6.620;2023-06-24T07:01:53;21.50;68.40
20171;DHT22;10245;51.344;6.620;2023-06-24T07:04:16;21.50;64.90
20171;DHT22;10245;51.344;6.620;2023-06-24T07:06:39;21.70;65.30
20171;DHT22;10245;51.344;6.620;2023-06-24T07:09:04;21.80;65.20
20171;DHT22;10245;51.344;6.620;2023-06-24T07:11:27;22.00;63.10
20171;DHT22;10245;51.344;6.620;2023-06-24T07:13:51;21.90;63.50
20171;DHT22;10245;51.344;6.620;2023-06-24T07:16:15;21.90;62.10
20171;DHT22;10245;51.344;6.620;2023-06-24T07:18:38;22.30;63.10
20171;DHT22;10245;51.344;6.620;2023-06-24T07:21:02;22.30;65.90
20171;DHT22;10245;51.344;6.620;2023-06-24T07:23:25;22.50;60.30
20171;DHT22;10245;51.344;6.620;2023-06-24T07:25:50;21.90;62.90
20171;DHT22;10245;51.344;6.620;2023-06-24T07:28:13;22.00;60.80
20171;DHT22;10245;51.344;6.620;2023-06-24T07:30:36;22.30;61.90
20171;DHT22;10245;51.344;6.620;2023-06-24T07:32:59;22.30;65.10
20171;DHT22;10245;51.344;6.620;2023-06-24T07:35:27;22.20;61.90
20171;DHT22;10245;51.344;6.620;2023-06-24T07:37:50;22.30;63.70
20171;DHT22;10245;51.344;6.620;2023-06-24T07:40:13;22.60;64.20
20171;DHT22;10245;51.344;6.620;2023-06-24T07:42:38;23.00;62.50
20171;DHT22;10245;51.344;6.620;2023-06-24T07:45:01;22.60;61.40
20171;DHT22;10245;51.344;6.620;2023-06-24T07:47:24;22.80;63.80
20171;DHT22;10245;51.344;6.620;2023-06-24T07:49:48;23.00;60.40
20171;DHT22;10245;51.344;6.620;2023-06-24T07:52:11;22.80;58.70
20171;DHT22;10245;51.344;6.620;2023-06-24T07:54:34;22.80;59.70
20171;DHT22;10245;51.344;6.620;2023-06-24T07:56:57;22.60;59.30
20171;DHT22;10245;51.344;6.620;2023-06-24T07:59:22;23.10;60.60
20171;DHT22;10245;51.344;6.620;2023-06-24T08:01:46;23.40;58.00
20171;DHT22;10245;51.344;6.620;2023-06-24T08:04:09;23.10;55.40
20171;DHT22;10245;51.344;6.620;2023-06-24T08:06:33;23.30;56.80
20171;DHT22;10245;51.344;6.620;2023-06-24T08:08:56;23.30;51.90
20171;DHT22;10245;51.344;6.620;2023-06-24T08:11:19;23.50;55.00
20171;DHT22;10245;51.344;6.620;2023-06-24T08:13:43;24.10;61.70
20171;DHT22;10245;51.344;6.620;2023-06-24T08:16:08;24.00;56.30
20171;DHT22;10245;51.344;6.620;2023-06-24T08:18:31;23.90;59.00
20171;DHT22;10245;51.344;6.620;2023-06-24T08:20:55;23.70;54.60
20171;DHT22;10245;51.344;6.620;2023-06-24T08:23:19;23.60;54.70
20171;DHT22;10245;51.344;6.620;2023-06-24T08:25:42;23.50;56.10
20171;DHT22;10245;51.344;6.620;2023-06-24T08:28:05;24.00;55.50
20171;DHT22;10245;51.344;6.620;2023-06-24T08:30:28;24.00;56.60
20171;DHT22;10245;51.344;6.620;2023-06-24T08:32:53;24.20;57.70
20171;DHT22;10245;51.344;6.620;2023-06-24T08:35:16;24.90;56.60
20171;DHT22;10245;51.344;6.620;2023-06-24T08:37:40;24.50;58.90
20171;DHT22;10245;51.344;6.620;2023-06-24T08:40:03;24.20;54.50
20171;DHT22;10245;51.344;6.620;2023-06-24T08:42:27;24.50;59.70
20171;DHT22;10245;51.344;6.620;2023-06-24T08:44:51;24.20;58.60
20171;DHT22;10245;51.344;6.620;2023-06-24T08:47:14;24.10;61.40
20171;DHT22;10245;51.344;6.620;2023-06-24T08:49:44;24.60;59.00
20171;DHT22;10245;51.344;6.620;2023-06-24T08:52:13;24.30;58.50
20171;DHT22;10245;51.344;6.620;2023-06-24T08:54:38;24.40;57.00
20171;DHT22;10245;51.344;6.620;2023-06-24T08:57:03;24.50;58.20
20171;DHT22;10245;51.344;6.620;2023-06-24T08:59:29;24.50;57.60
20171;DHT22;10245;51.344;6.620;2023-06-24T09:01:52;24.90;59.80
20171;DHT22;10245;51.344;6.620;2023-06-24T09:04:15;25.10;61.30
20171;DHT22;10245;51.344;6.620;2023-06-24T09:06:40;24.50;55.70
20171;DHT22;10245;51.344;6.620;2023-06-24T09:09:03;24.80;57.00
20171;DHT22;10245;51.344;6.620;2023-06-24T09:11:27;25.10;54.20
20171;DHT22;10245;51.344;6.620;2023-06-24T09:13:54;25.00;55.20
20171;DHT22;10245;51.344;6.620;2023-06-24T09:16:18;24.50;54.60
20171;DHT22;10245;51.344;6.620;2023-06-24T09:18:42;24.80;57.00
20171;DHT22;10245;51.344;6.620;2023-06-24T09:21:10;24.90;53.70
20171;DHT22;10245;51.344;6.620;2023-06-24T09:23:37;25.00;54.10
20171;DHT22;10245;51.344;6.620;2023-06-24T09:26:01;25.00;54.10
20171;DHT22;10245;51.344;6.620;2023-06-24T09:28:26;24.90;55.00
20171;DHT22;10245;51.344;6.620;2023-06-24T09:31:04;24.90;53.90
20171;DHT22;10245;51.344;6.620;2023-06-24T09:33:40;25.10;53.20
20171;DHT22;10245;51.344;6.620;2023-06-24T09:36:04;25.50;53.10
20171;DHT22;10245;51.344;6.620;2023-06-24T09:38:35;25.00;51.70
20171;DHT22;10245;51.344;6.620;2023-06-24T09:41:02;25.20;53.00
20171;DHT22;10245;51.344;6.620;2023-06-24T09:43:35;25.60;53.90
20171;DHT22;10245;51.344;6.620;2023-06-24T09:46:01;25.40;55.00
20171;DHT22;10245;51.344;6.620;2023-06-24T09:48:25;25.20;55.20
20171;DHT22;10245;51.344;6.620;2023-06-24T09:50:48;25.50;55.00
20171;DHT22;10245;51.344;6.620;2023-06-24T09:53:12;26.40;55.80
20171;DHT22;10245;51.344;6.620;2023-06-24T09:55:36;26.80;52.30
20171;DHT22;10245;51.344;6.620;2023-06-24T09:58:05;26.90;50.20
20171;DHT22;10245;51.344;6.620;2023-06-24T10:00:29;26.00;52.80
20171;DHT22;10245;51.344;6.620;2023-06-24T10:02:53;25.90;51.20
20171;DHT22;10245;51.344;6.620;2023-06-24T10:05:21;25.60;48.50
20171;DHT22;10245;51.344;6.620;2023-06-24T10:07:45;25.60;51.70
20171;DHT22;10245;51.344;6.620;2023-06-24T10:10:09;26.60;49.50
20171;DHT22;10245;51.344;6.620;2023-06-24T10:12:35;27.10;47.60
20171;DHT22;10245;51.344;6.620;2023-06-24T10:14:59;26.00;50.90
20171;DHT22;10245;51.344;6.620;2023-06-24T10:17:23;26.40;49.20
20171;DHT22;10245;51.344;6.620;2023-06-24T10:19:47;25.80;45.50
20171;DHT22;10245;51.344;6.620;2023-06-24T10:22:10;26.10;44.90
20171;DHT22;10245;51.344;6.620;2023-06-24T10:24:35;26.70;45.20
20171;DHT22;10245;51.344;6.620;2023-06-24T10:27:05;26.60;41.70
20171;DHT22;10245;51.344;6.620;2023-06-24T10:29:34;26.30;43.80
20171;DHT22;10245;51.344;6.620;2023-06-24T10:32:04;26.10;44.70
20171;DHT22;10245;51.344;6.620;2023-06-24T10:34:39;26.30;45.50
20171;DHT22;10245;51.344;6.620;2023-06-24T10:37:04;26.40;46.40
20171;DHT22;10245;51.344;6.620;2023-06-24T10:39:50;27.10;43.30
20171;DHT22;10245;51.344;6.620;2023-06-24T10:42:37;27.60;41.60
20171;DHT22;10245;51.344;6.620;2023-06-24T10:45:19;26.70;41.50
20171;DHT22;10245;51.344;6.620;2023-06-24T10:47:44;26.40;42.50
20171;DHT22;10245;51.344;6.620;2023-06-24T10:50:10;26.60;41.40
20171;DHT22;10245;51.344;6.620;2023-06-24T10:52:37;27.40;43.50
20171;DHT22;10245;51.344;6.620;2023-06-24T10:55:01;27.10;42.30
20171;DHT22;10245;51.344;6.620;2023-06-24T10:57:27;26.70;42.40
20171;DHT22;10245;51.344;6.620;2023-06-24T10:59:51;26.50;42.50
20171;DHT22;10245;51.344;6.620;2023-06-24T11:02:18;26.90;43.60
20171;DHT22;10245;51.344;6.620;2023-06-24T11:04:43;27.20;44.40
20171;DHT22;10245;51.344;6.620;2023-06-24T11:07:07;27.20;39.10
20171;DHT22;10245;51.344;6.620;2023-06-24T11:09:30;27.50;41.10
20171;DHT22;10245;51.344;6.620;2023-06-24T11:11:53;27.90;41.60
20171;DHT22;10245;51.344;6.620;2023-06-24T11:14:17;27.00;44.70
20171;DHT22;10245;51.344;6.620;2023-06-24T11:16:40;26.50;41.40
20171;DHT22;10245;51.344;6.620;2023-06-24T11:19:05;26.70;43.30
20171;DHT22;10245;51.344;6.620;2023-06-24T11:21:30;28.00;41.50
20171;DHT22;10245;51.344;6.620;2023-06-24T11:23:53;27.70;41.80
20171;DHT22;10245;51.344;6.620;2023-06-24T11:26:16;27.90;41.30
20171;DHT22;10245;51.344;6.620;2023-06-24T11:28:40;27.50;38.70
20171;DHT22;10245;51.344;6.620;2023-06-24T11:31:06;28.40;39.80
20171;DHT22;10245;51.344;6.620;2023-06-24T11:33:30;28.20;38.70
20171;DHT22;10245;51.344;6.620;2023-06-24T11:35:54;28.10;36.80
20171;DHT22;10245;51.344;6.620;2023-06-24T11:38:18;27.30;38.60
20171;DHT22;10245;51.344;6.620;2023-06-24T11:40:41;27.10;41.60
20171;DHT22;10245;51.344;6.620;2023-06-24T11:43:05;27.80;39.20
20171;DHT22;10245;51.344;6.620;2023-06-24T11:45:28;28.00;39.90
20171;DHT22;10245;51.344;6.620;2023-06-24T11:47:51;27.60;39.90
20171;DHT22;10245;51.344;6.620;2023-06-24T11:50:15;27.60;40.60
20171;DHT22;10245;51.344;6.620;2023-06-24T11:52:41;28.10;37.80
20171;DHT22;10245;51.344;6.620;2023-06-24T11:55:11;27.60;38.00
20171;DHT22;10245;51.344;6.620;2023-06-24T11:57:55;28.30;36.60
20171;DHT22;10245;51.344;6.620;2023-06-24T12:00:20;28.60;41.50
20171;DHT22;10245;51.344;6.620;2023-06-24T12:02:45;28.30;36.20
20171;DHT22;10245;51.344;6.620;2023-06-24T12:05:09;28.40;37.50
20171;DHT22;10245;51.344;6.620;2023-06-24T12:07:32;27.40;35.60
20171;DHT22;10245;51.344;6.620;2023-06-24T12:09:57;27.70;37.10
20171;DHT22;10245;51.344;6.620;2023-06-24T12:12:20;28.40;34.90
20171;DHT22;10245;51.344;6.620;2023-06-24T12:14:43;27.80;34.90
20171;DHT22;10245;51.344;6.620;2023-06-24T12:17:07;27.30;35.40
20171;DHT22;10245;51.344;6.620;2023-06-24T12:19:30;27.50;38.90
20171;DHT22;10245;51.344;6.620;2023-06-24T12:21:53;28.00;36.80
20171;DHT22;10245;51.344;6.620;2023-06-24T12:24:18;27.80;39.90
20171;DHT22;10245;51.344;6.620;2023-06-24T12:26:43;27.80;36.30
20171;DHT22;10245;51.344;6.620;2023-06-24T12:29:08;28.00;37.10
20171;DHT22;10245;51.344;6.620;2023-06-24T12:31:31;28.00;34.10
20171;DHT22;10245;51.344;6.620;2023-06-24T12:33:55;28.30;41.50
20171;DHT22;10245;51.344;6.620;2023-06-24T12:36:18;28.30;34.30
20171;DHT22;10245;51.344;6.620;2023-06-24T12:38:42;28.50;34.80
20171;DHT22;10245;51.344;6.620;2023-06-24T12:41:06;27.80;30.60
20171;DHT22;10245;51.344;6.620;2023-06-24T12:43:31;28.50;33.10
20171;DHT22;10245;51.344;6.620;2023-06-24T12:45:54;28.40;32.40
20171;DHT22;10245;51.344;6.620;2023-06-24T12:48:18;28.10;33.80
20171;DHT22;10245;51.344;6.620;2023-06-24T12:50:41;29.00;34.40
20171;DHT22;10245;51.344;6.620;2023-06-24T12:53:04;29.10;31.80
20171;DHT22;10245;51.344;6.620;2023-06-24T12:55:28;28.60;38.50
20171;DHT22;10245;51.344;6.620;2023-06-24T12:57:51;28.70;36.60
20171;DHT22;10245;51.344;6.620;2023-06-24T13:00:19;28.70;35.50
20171;DHT22;10245;51.344;6.620;2023-06-24T13:02:42;29.00;36.30
20171;DHT22;10245;51.344;6.620;2023-06-24T13:05:06;28.60;37.10
20171;DHT22;10245;51.344;6.620;2023-06-24T13:07:30;28.30;34.30
20171;DHT22;10245;51.344;6.620;2023-06-24T13:09:53;28.50;36.00
20171;DHT22;10245;51.344;6.620;2023-06-24T13:12:17;28.10;34.50
20171;DHT22;10245;51.344;6.620;2023-06-24T13:14:40;28.20;35.50
20171;DHT22;10245;51.344;6.620;2023-06-24T13:17:05;28.50;38.90
20171;DHT22;10245;51.344;6.620;2023-06-24T13:19:30;28.60;37.00
20171;DHT22;10245;51.344;6.620;2023-06-24T13:21:54;28.50;35.80
20171;DHT22;10245;51.344;6.620;2023-06-24T13:24:17;28.20;38.00
20171;DHT22;10245;51.344;6.620;2023-06-24T13:26:40;28.40;37.10
20171;DHT22;10245;51.344;6.620;2023-06-24T13:29:04;28.60;38.60
20171;DHT22;10245;51.344;6.620;2023-06-24T13:31:27;28.70;36.10
20171;DHT22;10245;51.344;6.620;2023-06-24T13:33:52;28.70;38.40
20171;DHT22;10245;51.344;6.620;2023-06-24T13:36:29;28.70;35.80
20171;DHT22;10245;51.344;6.620;2023-06-24T13:38:54;28.60;36.60
20171;DHT22;10245;51.344;6.620;2023-06-24T13:41:17;29.00;38.10
20171;DHT22;10245;51.344;6.620;2023-06-24T13:43:41;28.60;37.00
20171;DHT22;10245;51.344;6.620;2023-06-24T13:46:04;29.10;34.30
20171;DHT22;10245;51.344;6.620;2023-06-24T13:48:27;28.60;35.00
20171;DHT22;10245;51.344;6.620;2023-06-24T13:50:52;28.80;35.10
20171;DHT22;10245;51.344;6.620;2023-06-24T13:53:15;28.70;36.70
20171;DHT22;10245;51.344;6.620;2023-06-24T13:55:38;29.00;39.10
20171;DHT22;10245;51.344;6.620;2023-06-24T13:58:01;28.80;37.00
20171;DHT22;10245;51.344;6.620;2023-06-24T14:00:25;28.90;36.30
20171;DHT22;10245;51.344;6.620;2023-06-24T14:02:48;29.00;38.30
20171;DHT22;10245;51.344;6.620;2023-06-24T14:05:11;28.60;35.20
20171;DHT22;10245;51.344;6.620;2023-06-24T14:07:36;28.00;34.20
20171;DHT22;10245;51.344;6.620;2023-06-24T14:09:59;28.80;32.80
20171;DHT22;10245;51.344;6.620;2023-06-24T14:12:23;28.90;37.40
20171;DHT22;10245;51.344;6.620;2023-06-24T14:14:46;28.70;34.80
20171;DHT22;10245;51.344;6.620;2023-06-24T14:17:09;28.30;33.10
20171;DHT22;10245;51.344;6.620;2023-06-24T14:19:34;28.50;34.50
20171;DHT22;10245;51.344;6.620;2023-06-24T14:21:57;29.00;38.20
20171;DHT22;10245;51.344;6.620;2023-06-24T14:24:22;28.90;35.60
20171;DHT22;10245;51.344;6.620;2023-06-24T14:26:45;28.70;35.80
20171;DHT22;10245;51.344;6.620;2023-06-24T14:29:12;28.70;33.80
20171;DHT22;10245;51.344;6.620;2023-06-24T14:31:35;28.80;36.00
20171;DHT22;10245;51.344;6.620;2023-06-24T14:33:58;28.60;36.10
20171;DHT22;10245;51.344;6.620;2023-06-24T14:36:22;28.60;33.30
20171;DHT22;10245;51.344;6.620;2023-06-24T14:38:45;28.60;32.50
20171;DHT22;10245;51.344;6.620;2023-06-24T14:41:10;28.60;32.20
20171;DHT22;10245;51.344;6.620;2023-06-24T14:43:33;28.70;33.50
20171;DHT22;10245;51.344;6.620;2023-06-24T14:45:56;28.60;36.50
20171;DHT22;10245;51.344;6.620;2023-06-24T14:48:21;29.30;33.80
20171;DHT22;10245;51.344;6.620;2023-06-24T14:50:46;29.20;32.80
20171;DHT22;10245;51.344;6.620;2023-06-24T14:53:09;28.90;31.80
20171;DHT22;10245;51.344;6.620;2023-06-24T14:55:33;29.00;38.30
20171;DHT22;10245;51.344;6.620;2023-06-24T14:57:58;29.10;34.40
20171;DHT22;10245;51.344;6.620;2023-06-24T15:00:21;28.90;34.90
20171;DHT22;10245;51.344;6.620;2023-06-24T15:02:44;29.00;33.80
20171;DHT22;10245;51.344;6.620;2023-06-24T15:05:08;29.20;35.10
20171;DHT22;10245;51.344;6.620;2023-06-24T15:07:31;28.50;34.40
20171;DHT22;10245;51.344;6.620;2023-06-24T15:09:54;28.60;33.40
20171;DHT22;10245;51.344;6.620;2023-06-24T15:12:18;29.00;36.30
20171;DHT22;10245;51.344;6.620;2023-06-24T15:14:42;29.00;31.20
20171;DHT22;10245;51.344;6.620;2023-06-24T15:17:06;29.50;33.60